sensor_id;sensor_type;location;lat;lon;timestamp;pressure;altitude;pressure_sealevel;temperature;humidity
10466;BME280;5280;42.600;23.556;2024-03-25T00:00:16;92132.84;;;3.60;100.00
10466;BME280;5280;42.600;23.556;2024-03-25T00:02:43;92135.09;;;3.54;100.00
10466;BME280;5280;42.600;23.556;2024-03-25T00:05:10;92133.06;;;3.33;100.00
10466;BME280;5280;42.600;23.556;2024-03-25T00:07:37;92137.81;;;3.39;100.00
10466;BME280;5280;42.600;23.556;2024-03-25T00:10:04;92144.44;;;3.32;100.00
10466;BME280;5280;42.600;23.556;2024-03-25T00:12:33;92111.44;;;3.08;100.00
10466;BME280;5280;42.600;23.556;2024-03-25T00:14:59;92130.72;;;3.18;100.00
10466;BME280;5280;42.600;23.556;2024-03-25T00:17:25;92146.75;;;3.24;100.00
10466;BME280;5280;42.600;23.556;2024-03-25T00:19:53;92138.41;;;3.19;100.00
10466;BME280;5280;42.600;23.556;2024-03-25T00:22:19;92136.22;;;3.26;100.00
10466;BME280;5280;42.600;23.556;2024-03-25T00:24:46;92135.19;;;3.28;100.00
10466;BME280;5280;42.600;23.556;2024-03-25T00:27:12;92110.09;;;3.02;100.00
10466;BME280;5280;42.600;23.556;2024-03-25T00:29:41;92154.31;;;3.16;100.00
10466;BME280;5280;42.600;23.556;2024-03-25T00:32:07;92145.38;;;3.08;100.00
10466;BME280;5280;42.600;23.556;2024-03-25T00:34:34;92157.19;;;3.24;100.00
10466;BME280;5280;42.600;23.556;2024-03-25T00:37:00;92129.06;;;3.04;100.00
10466;BME280;5280;42.600;23.556;2024-03-25T00:39:28;92122.72;;;2.95;100.00
10466;BME280;5280;42.600;23.556;2024-03-25T00:41:54;92136.91;;;3.04;100.00
10466;BME280;5280;42.600;23.556;2024-03-25T00:44:22;92155.38;;;3.01;100.00
10466;BME280;5280;42.600;23.556;2024-03-25T00:46:49;92123.28;;;2.88;100.00
10466;BME280;5280;42.600;23.556;2024-03-25T00:49:16;92128.69;;;2.85;100.00
10466;BME280;5280;42.600;23.556;2024-03-25T00:51:42;92098.69;;;2.67;100.00
10466;BME280;5280;42.600;23.556;2024-03-25T00:54:09;92138.06;;;3.00;100.00
10466;BME280;5280;42.600;23.556;2024-03-25T00:56:35;92125.56;;;2.92;100.00
10466;BME280;5280;42.600;23.556;2024-03-25T00:59:02;92144.53;;;3.07;100.00
10466;BME280;5280;42.600;23.556;2024-03-25T01:01:28;92042.81;;;2.58;100.00
10466;BME280;5280;42.600;23.556;2024-03-25T01:03:56;92066.16;;;2.72;100.00
10466;BME280;5280;42.600;23.556;2024-03-25T01:06:23;92115.50;;;3.12;100.00
10466;BME280;5280;42.600;23.556;2024-03-25T01:08:50;92049.72;;;2.59;100.00
10466;BME280;5280;42.600;23.556;2024-03-25T01:11:16;92022.72;;;2.47;100.00
10466;BME280;5280;42.600;23.556;2024-03-25T01:13:43;92055.22;;;2.67;100.00
10466;BME280;5280;42.600;23.556;2024-03-25T01:16:09;92123.22;;;3.13;100.00
10466;BME280;5280;42.600;23.556;2024-03-25T01:18:36;92125.09;;;3.11;100.00
10466;BME280;5280;42.600;23.556;2024-03-25T01:21:04;92093.66;;;2.89;100.00
10466;BME280;5280;42.600;23.556;2024-03-25T01:23:31;92115.22;;;3.03;100.00
10466;BME280;5280;42.600;23.556;2024-03-25T01:25:57;92107.19;;;2.94;100.00
10466;BME280;5280;42.600;23.556;2024-03-25T01:28:24;92107.38;;;3.03;100.00
10466;BME280;5280;42.600;23.556;2024-03-25T01:30:51;92102.78;;;3.07;100.00
10466;BME280;5280;42.600;23.556;2024-03-25T01:33:19;92098.72;;;3.03;100.00
10466;BME280;5280;42.600;23.556;2024-03-25T01:35:45;92094.44;;;3.02;100.00
10466;BME280;5280;42.600;23.556;2024-03-25T01:38:13;92092.94;;;3.11;100.00
10466;BME280;5280;42.600;23.556;2024-03-25T01:40:39;92097.41;;;3.21;100.00
10466;BME280;5280;42.600;23.556;2024-03-25T01:43:06;92095.94;;;3.17;100.00
10466;BME280;5280;42.600;23.556;2024-03-25T01:45:34;92085.22;;;3.09;100.00
10466;BME280;5280;42.600;23.556;2024-03-25T01:48:02;92107.41;;;3.27;100.00
10466;BME280;5280;42.600;23.556;2024-03-25T01:50:30;92096.03;;;3.28;100.00
10466;BME280;5280;42.600;23.556;2024-03-25T01:52:59;92095.84;;;3.19;100.00
10466;BME280;5280;42.600;23.556;2024-03-25T01:55:28;92123.00;;;3.40;100.00
10466;BME280;5280;42.600;23.556;2024-03-25T01:57:56;92104.34;;;3.33;100.00
10466;BME280;5280;42.600;23.556;2024-03-25T02:00:24;92102.41;;;3.48;100.00
10466;BME280;5280;42.600;23.556;2024-03-25T02:02:53;92108.72;;;3.57;100.00
10466;BME280;5280;42.600;23.556;2024-03-25T02:05:20;92094.72;;;3.58;100.00
10466;BME280;5280;42.600;23.556;2024-03-25T02:07:48;92107.56;;;3.61;100.00
10466;BME280;5280;42.600;23.556;2024-03-25T02:10:15;92099.56;;;3.51;100.00
10466;BME280;5280;42.600;23.556;2024-03-25T02:12:45;92117.31;;;3.70;100.00
10466;BME280;5280;42.600;23.556;2024-03-25T02:15:12;92103.50;;;3.57;100.00
10466;BME280;5280;42.600;23.556;2024-03-25T02:17:39;92131.31;;;3.69;100.00
10466;BME280;5280;42.600;23.556;2024-03-25T02:20:06;92136.34;;;3.72;100.00
10466;BME280;5280;42.600;23.556;2024-03-25T02:22:34;92136.09;;;3.75;100.00
10466;BME280;5280;42.600;23.556;2024-03-25T02:25:03;92070.72;;;3.29;100.00
10466;BME280;5280;42.600;23.556;2024-03-25T02:27:34;92134.66;;;3.71;100.00
10466;BME280;5280;42.600;23.556;2024-03-25T02:30:04;92133.44;;;3.64;100.00
10466;BME280;5280;42.600;23.556;2024-03-25T02:32:32;92134.44;;;3.74;100.00
10466;BME280;5280;42.600;23.556;2024-03-25T02:34:58;92130.69;;;3.78;100.00
10466;BME280;5280;42.600;23.556;2024-03-25T02:37:26;92125.16;;;3.70;100.00
10466;BME280;5280;42.600;23.556;2024-03-25T02:39:53;92100.16;;;3.55;100.00
10466;BME280;5280;42.600;23.556;2024-03-25T02:42:21;92079.19;;;3.32;100.00
10466;BME280;5280;42.600;23.556;2024-03-25T02:44:49;92132.00;;;3.60;100.00
10466;BME280;5280;42.600;23.556;2024-03-25T02:47:16;92117.00;;;3.51;100.00
10466;BME280;5280;42.600;23.556;2024-03-25T02:49:43;92123.78;;;3.53;100.00
10466;BME280;5280;42.600;23.556;2024-03-25T02:52:10;92122.47;;;3.47;100.00
10466;BME280;5280;42.600;23.556;2024-03-25T02:54:36;92124.84;;;3.51;100.00
10466;BME280;5280;42.600;23.556;2024-03-25T02:57:03;92123.06;;;3.51;100.00
10466;BME280;5280;42.600;23.556;2024-03-25T02:59:29;92136.47;;;3.46;100.00
10466;BME280;5280;42.600;23.556;2024-03-25T03:01:57;92134.28;;;3.40;100.00
10466;BME280;5280;42.600;23.556;2024-03-25T03:04:23;92141.41;;;3.38;100.00
10466;BME280;5280;42.600;23.556;2024-03-25T03:06:50;92143.72;;;3.30;100.00
10466;BME280;5280;42.600;23.556;2024-03-25T03:09:16;92142.69;;;3.33;100.00
10466;BME280;5280;42.600;23.556;2024-03-25T03:11:43;92139.94;;;3.34;100.00
10466;BME280;5280;42.600;23.556;2024-03-25T03:14:09;92144.44;;;3.32;100.00
10466;BME280;5280;42.600;23.556;2024-03-25T03:16:36;92145.28;;;3.33;100.00
10466;BME280;5280;42.600;23.556;2024-03-25T03:19:03;92136.38;;;3.35;100.00
10466;BME280;5280;42.600;23.556;2024-03-25T03:21:30;92139.66;;;3.26;100.00
10466;BME280;5280;42.600;23.556;2024-03-25T03:23:56;92127.22;;;3.30;100.00
10466;BME280;5280;42.600;23.556;2024-03-25T03:26:23;92157.94;;;3.26;100.00
10466;BME280;5280;42.600;23.556;2024-03-25T03:28:52;92163.66;;;3.31;100.00
10466;BME280;5280;42.600;23.556;2024-03-25T03:31:21;92166.38;;;3.30;100.00
10466;BME280;5280;42.600;23.556;2024-03-25T03:33:47;92164.00;;;3.27;100.00
10466;BME280;5280;42.600;23.556;2024-03-25T03:36:17;92117.69;;;3.05;100.00
10466;BME280;5280;42.600;23.556;2024-03-25T03:38:43;92171.59;;;3.30;100.00
10466;BME280;5280;42.600;23.556;2024-03-25T03:41:10;92176.22;;;3.26;100.00
10466;BME280;5280;42.600;23.556;2024-03-25T03:43:36;92180.59;;;3.26;100.00
10466;BME280;5280;42.600;23.556;2024-03-25T03:46:04;92187.91;;;3.33;100.00
10466;BME280;5280;42.600;23.556;2024-03-25T03:48:30;92184.31;;;3.34;100.00
10466;BME280;5280;42.600;23.556;2024-03-25T03:50:57;92171.31;;;3.22;100.00
10466;BME280;5280;42.600;23.556;2024-03-25T03:53:24;92182.69;;;3.33;100.00
10466;BME280;5280;42.600;23.556;2024-03-25T03:55:55;92160.13;;;3.20;100.00
10466;BME280;5280;42.600;23.556;2024-03-25T03:58:21;92177.72;;;3.41;100.00
10466;BME280;5280;42.600;23.556;2024-03-25T04:00:48;92179.59;;;3.39;100.00
10466;BME280;5280;42.600;23.556;2024-03-25T04:03:14;92188.78;;;3.45;100.00
10466;BME280;5280;42.600;23.556;2024-03-25T04:05:41;92175.13;;;3.41;100.00
10466;BME280;5280;42.600;23.556;2024-03-25T04:08:07;92159.72;;;3.26;100.00
10466;BME280;5280;42.600;23.556;2024-03-25T04:10:36;92132.00;;;3.12;100.00
10466;BME280;5280;42.600;23.556;2024-03-25T04:13:03;92203.09;;;3.52;100.00
10466;BME280;5280;42.600;23.556;2024-03-25T04:15:32;92213.53;;;3.52;100.00
10466;BME280;5280;42.600;23.556;2024-03-25T04:17:58;92212.97;;;3.60;100.00
10466;BME280;5280;42.600;23.556;2024-03-25T04:20:26;92124.66;;;3.17;100.00
10466;BME280;5280;42.600;23.556;2024-03-25T04:22:52;92207.31;;;3.66;100.00
10466;BME280;5280;42.600;23.556;2024-03-25T04:25:19;92211.59;;;3.67;100.00
10466;BME280;5280;42.600;23.556;2024-03-25T04:27:47;92214.31;;;3.65;100.00
10466;BME280;5280;42.600;23.556;2024-03-25T04:30:14;92214.03;;;3.81;100.00
10466;BME280;5280;42.600;23.556;2024-03-25T04:32:40;92209.06;;;3.78;100.00
10466;BME280;5280;42.600;23.556;2024-03-25T04:35:08;92213.44;;;3.77;100.00
10466;BME280;5280;42.600;23.556;2024-03-25T04:37:34;92231.09;;;3.74;100.00
10466;BME280;5280;42.600;23.556;2024-03-25T04:40:01;92169.81;;;3.30;100.00
10466;BME280;5280;42.600;23.556;2024-03-25T04:42:27;92238.63;;;3.78;100.00
10466;BME280;5280;42.600;23.556;2024-03-25T04:44:54;92155.97;;;3.17;100.00
10466;BME280;5280;42.600;23.556;2024-03-25T04:47:20;92246.25;;;3.69;100.00
10466;BME280;5280;42.600;23.556;2024-03-25T04:49:46;92224.31;;;3.47;100.00
10466;BME280;5280;42.600;23.556;2024-03-25T04:52:12;92233.06;;;3.46;100.00
10466;BME280;5280;42.600;23.556;2024-03-25T04:54:41;92249.03;;;3.55;100.00
10466;BME280;5280;42.600;23.556;2024-03-25T04:57:07;92260.91;;;3.59;100.00
10466;BME280;5280;42.600;23.556;2024-03-25T04:59:33;92250.94;;;3.53;100.00
10466;BME280;5280;42.600;23.556;2024-03-25T05:02:00;92278.25;;;3.60;100.00
10466;BME280;5280;42.600;23.556;2024-03-25T05:04:26;92270.97;;;3.52;100.00
10466;BME280;5280;42.600;23.556;2024-03-25T05:06:52;92258.81;;;3.64;100.00
10466;BME280;5280;42.600;23.556;2024-03-25T05:09:18;92258.25;;;3.47;100.00
10466;BME280;5280;42.600;23.556;2024-03-25T05:11:44;92252.19;;;3.47;100.00
10466;BME280;5280;42.600;23.556;2024-03-25T05:14:10;92265.56;;;3.42;100.00
10466;BME280;5280;42.600;23.556;2024-03-25T05:16:36;92261.38;;;3.40;100.00
10466;BME280;5280;42.600;23.556;2024-03-25T05:19:04;92271.31;;;3.47;100.00
10466;BME280;5280;42.600;23.556;2024-03-25T05:21:30;92258.81;;;3.27;100.00
10466;BME280;5280;42.600;23.556;2024-03-25T05:23:56;92272.47;;;3.43;100.00
10466;BME280;5280;42.600;23.556;2024-03-25T05:26:22;92275.59;;;3.49;100.00
10466;BME280;5280;42.600;23.556;2024-03-25T05:28:52;92276.63;;;3.46;100.00
10466;BME280;5280;42.600;23.556;2024-03-25T05:31:18;92274.84;;;3.46;100.00
10466;BME280;5280;42.600;23.556;2024-03-25T05:33:44;92201.63;;;2.99;100.00
10466;BME280;5280;42.600;23.556;2024-03-25T05:36:11;92284.97;;;3.51;100.00
10466;BME280;5280;42.600;23.556;2024-03-25T05:38:37;92280.03;;;3.59;100.00
10466;BME280;5280;42.600;23.556;2024-03-25T05:41:04;92277.44;;;3.59;100.00
10466;BME280;5280;42.600;23.556;2024-03-25T05:43:30;92273.34;;;3.68;100.00
10466;BME280;5280;42.600;23.556;2024-03-25T05:45:56;92285.44;;;3.81;100.00
10466;BME280;5280;42.600;23.556;2024-03-25T05:48:24;92265.00;;;3.63;100.00
10466;BME280;5280;42.600;23.556;2024-03-25T05:50:58;92278.69;;;3.66;100.00
10466;BME280;5280;42.600;23.556;2024-03-25T05:53:26;92300.50;;;3.78;100.00
10466;BME280;5280;42.600;23.556;2024-03-25T05:55:52;92300.41;;;3.67;100.00
10466;BME280;5280;42.600;23.556;2024-03-25T05:58:18;92273.69;;;3.51;100.00
10466;BME280;5280;42.600;23.556;2024-03-25T06:00:46;92312.81;;;3.76;100.00
10466;BME280;5280;42.600;23.556;2024-03-25T06:03:12;92241.75;;;3.34;100.00
10466;BME280;5280;42.600;23.556;2024-03-25T06:05:38;92332.13;;;3.86;100.00
10466;BME280;5280;42.600;23.556;2024-03-25T06:08:05;92336.94;;;3.92;100.00
10466;BME280;5280;42.600;23.556;2024-03-25T06:10:36;92348.03;;;3.83;100.00
10466;BME280;5280;42.600;23.556;2024-03-25T06:13:02;92329.22;;;3.78;100.00
10466;BME280;5280;42.600;23.556;2024-03-25T06:15:28;92344.97;;;3.89;100.00
10466;BME280;5280;42.600;23.556;2024-03-25T06:17:54;92345.94;;;3.88;100.00
10466;BME280;5280;42.600;23.556;2024-03-25T06:20:20;92330.69;;;3.82;100.00
10466;BME280;5280;42.600;23.556;2024-03-25T06:22:46;92347.81;;;3.86;100.00
10466;BME280;5280;42.600;23.556;2024-03-25T06:25:12;92347.06;;;3.84;100.00
10466;BME280;5280;42.600;23.556;2024-03-25T06:27:39;92311.28;;;3.61;100.00
10466;BME280;5280;42.600;23.556;2024-03-25T06:30:07;92364.94;;;3.90;100.00
10466;BME280;5280;42.600;23.556;2024-03-25T06:32:53;92358.50;;;3.83;100.00
10466;BME280;5280;42.600;23.556;2024-03-25T06:35:38;92379.13;;;3.99;100.00
10466;BME280;5280;42.600;23.556;2024-03-25T06:38:04;92370.53;;;4.09;100.00
10466;BME280;5280;42.600;23.556;2024-03-25T06:40:30;92368.00;;;4.20;100.00
10466;BME280;5280;42.600;23.556;2024-03-25T06:42:58;92375.09;;;4.31;100.00
10466;BME280;5280;42.600;23.556;2024-03-25T06:45:24;92395.91;;;4.56;100.00
10466;BME280;5280;42.600;23.556;2024-03-25T06:47:49;92385.22;;;4.59;100.00
10466;BME280;5280;42.600;23.556;2024-03-25T06:50:15;92391.69;;;4.66;100.00
10466;BME280;5280;42.600;23.556;2024-03-25T06:52:41;92396.66;;;4.82;100.00
10466;BME280;5280;42.600;23.556;2024-03-25T06:55:08;92410.00;;;4.90;100.00
10466;BME280;5280;42.600;23.556;2024-03-25T06:57:34;92409.06;;;4.91;100.00
10466;BME280;5280;42.600;23.556;2024-03-25T07:00:01;92410.22;;;4.87;100.00
10466;BME280;5280;42.600;23.556;2024-03-25T07:02:27;92403.81;;;4.91;100.00
10466;BME280;5280;42.600;23.556;2024-03-25T07:04:53;92411.94;;;4.99;100.00
10466;BME280;5280;42.600;23.556;2024-03-25T07:07:19;92395.69;;;5.07;100.00
10466;BME280;5280;42.600;23.556;2024-03-25T07:09:45;92371.72;;;5.00;100.00
10466;BME280;5280;42.600;23.556;2024-03-25T07:12:10;92412.28;;;5.30;100.00
10466;BME280;5280;42.600;23.556;2024-03-25T07:14:36;92412.56;;;5.38;100.00
10466;BME280;5280;42.600;23.556;2024-03-25T07:17:04;92428.13;;;5.39;100.00
10466;BME280;5280;42.600;23.556;2024-03-25T07:19:29;92390.00;;;5.24;100.00
10466;BME280;5280;42.600;23.556;2024-03-25T07:21:55;92415.84;;;5.29;100.00
10466;BME280;5280;42.600;23.556;2024-03-25T07:24:21;92369.22;;;4.99;100.00
10466;BME280;5280;42.600;23.556;2024-03-25T07:26:47;92380.16;;;5.04;100.00
10466;BME280;5280;42.600;23.556;2024-03-25T07:29:13;92428.84;;;5.30;100.00
10466;BME280;5280;42.600;23.556;2024-03-25T07:31:39;92429.56;;;5.43;100.00
10466;BME280;5280;42.600;23.556;2024-03-25T07:34:06;92362.72;;;5.15;100.00
10466;BME280;5280;42.600;23.556;2024-03-25T07:36:32;92439.53;;;5.62;100.00
10466;BME280;5280;42.600;23.556;2024-03-25T07:38:58;92434.16;;;5.63;100.00
10466;BME280;5280;42.600;23.556;2024-03-25T07:41:24;92434.19;;;5.75;100.00
10466;BME280;5280;42.600;23.556;2024-03-25T07:43:50;92440.50;;;5.83;100.00
10466;BME280;5280;42.600;23.556;2024-03-25T07:46:15;92441.75;;;5.90;100.00
10466;BME280;5280;42.600;23.556;2024-03-25T07:48:41;92368.53;;;5.65;100.00
10466;BME280;5280;42.600;23.556;2024-03-25T07:51:09;92430.94;;;6.17;100.00
10466;BME280;5280;42.600;23.556;2024-03-25T07:53:34;92432.09;;;6.24;100.00
10466;BME280;5280;42.600;23.556;2024-03-25T07:56:01;92439.63;;;6.29;100.00
10466;BME280;5280;42.600;23.556;2024-03-25T07:58:27;92387.28;;;5.94;100.00
10466;BME280;5280;42.600;23.556;2024-03-25T08:00:53;92431.63;;;6.08;100.00
10466;BME280;5280;42.600;23.556;2024-03-25T08:03:18;92432.00;;;6.15;100.00
10466;BME280;5280;42.600;23.556;2024-03-25T08:05:44;92432.47;;;6.31;100.00
10466;BME280;5280;42.600;23.556;2024-03-25T08:08:12;92441.25;;;6.63;100.00
10466;BME280;5280;42.600;23.556;2024-03-25T08:10:38;92440.19;;;6.66;100.00
10466;BME280;5280;42.600;23.556;2024-03-25T08:13:04;92443.41;;;6.69;100.00
10466;BME280;5280;42.600;23.556;2024-03-25T08:15:30;92445.66;;;6.63;99.30
10466;BME280;5280;42.600;23.556;2024-03-25T08:17:56;92447.97;;;6.56;97.89
10466;BME280;5280;42.600;23.556;2024-03-25T08:20:22;92437.81;;;6.52;100.00
10466;BME280;5280;42.600;23.556;2024-03-25T08:22:48;92437.19;;;6.70;100.00
10466;BME280;5280;42.600;23.556;2024-03-25T08:25:16;92382.56;;;6.53;100.00
10466;BME280;5280;42.600;23.556;2024-03-25T08:27:41;92428.53;;;7.02;100.00
10466;BME280;5280;42.600;23.556;2024-03-25T08:30:08;92451.63;;;7.19;95.65
10466;BME280;5280;42.600;23.556;2024-03-25T08:32:35;92452.44;;;7.30;97.74
10466;BME280;5280;42.600;23.556;2024-03-25T08:35:00;92452.56;;;7.29;94.34
10466;BME280;5280;42.600;23.556;2024-03-25T08:37:26;92463.06;;;7.29;95.10
10466;BME280;5280;42.600;23.556;2024-03-25T08:39:52;92463.72;;;7.10;91.99
10466;BME280;5280;42.600;23.556;2024-03-25T08:42:20;92425.94;;;6.90;90.65
10466;BME280;5280;42.600;23.556;2024-03-25T08:44:46;92469.56;;;7.14;96.84
10466;BME280;5280;42.600;23.556;2024-03-25T08:47:12;92476.94;;;7.20;97.15
10466;BME280;5280;42.600;23.556;2024-03-25T08:49:38;92467.66;;;7.16;91.63
10466;BME280;5280;42.600;23.556;2024-03-25T08:52:04;92454.63;;;7.14;95.92
10466;BME280;5280;42.600;23.556;2024-03-25T08:54:30;92464.66;;;7.20;97.17
10466;BME280;5280;42.600;23.556;2024-03-25T08:56:56;92422.50;;;6.79;91.95
10466;BME280;5280;42.600;23.556;2024-03-25T08:59:23;92480.91;;;7.14;92.07
10466;BME280;5280;42.600;23.556;2024-03-25T09:01:49;92483.41;;;7.16;94.28
10466;BME280;5280;42.600;23.556;2024-03-25T09:04:15;92444.78;;;6.96;95.75
10466;BME280;5280;42.600;23.556;2024-03-25T09:06:41;92477.91;;;7.19;94.18
10466;BME280;5280;42.600;23.556;2024-03-25T09:09:06;92467.75;;;7.25;94.89
10466;BME280;5280;42.600;23.556;2024-03-25T09:11:51;92482.19;;;7.31;91.34
10466;BME280;5280;42.600;23.556;2024-03-25T09:14:17;92461.91;;;7.22;90.29
10466;BME280;5280;42.600;23.556;2024-03-25T09:16:44;92456.66;;;7.22;93.93
10466;BME280;5280;42.600;23.556;2024-03-25T09:19:10;92466.44;;;7.20;88.63
10466;BME280;5280;42.600;23.556;2024-03-25T09:21:36;92460.47;;;7.18;93.05
10466;BME280;5280;42.600;23.556;2024-03-25T09:24:02;92460.53;;;7.27;88.87
10466;BME280;5280;42.600;23.556;2024-03-25T09:26:28;92427.97;;;7.19;94.63
10466;BME280;5280;42.600;23.556;2024-03-25T09:28:54;92448.47;;;7.36;90.99
10466;BME280;5280;42.600;23.556;2024-03-25T09:31:20;92404.38;;;7.08;89.39
10466;BME280;5280;42.600;23.556;2024-03-25T09:33:47;92487.22;;;7.55;92.13
10466;BME280;5280;42.600;23.556;2024-03-25T09:36:13;92478.50;;;7.54;91.20
10466;BME280;5280;42.600;23.556;2024-03-25T09:38:39;92497.16;;;7.51;89.17
10466;BME280;5280;42.600;23.556;2024-03-25T09:41:08;92474.00;;;7.45;82.57
10466;BME280;5280;42.600;23.556;2024-03-25T09:43:41;92473.03;;;7.46;86.96
10466;BME280;5280;42.600;23.556;2024-03-25T09:46:09;92489.84;;;7.55;89.11
10466;BME280;5280;42.600;23.556;2024-03-25T09:48:35;92471.50;;;7.44;90.68
10466;BME280;5280;42.600;23.556;2024-03-25T09:51:04;92487.09;;;7.56;88.38
10466;BME280;5280;42.600;23.556;2024-03-25T09:53:30;92493.88;;;7.59;88.39
10466;BME280;5280;42.600;23.556;2024-03-25T09:55:56;92488.41;;;7.62;90.75
10466;BME280;5280;42.600;23.556;2024-03-25T09:58:24;92493.00;;;7.69;87.82
10466;BME280;5280;42.600;23.556;2024-03-25T10:00:50;92488.25;;;7.63;87.53
10466;BME280;5280;42.600;23.556;2024-03-25T10:03:17;92493.34;;;7.76;87.80
10466;BME280;5280;42.600;23.556;2024-03-25T10:05:43;92482.44;;;7.81;88.64
10466;BME280;5280;42.600;23.556;2024-03-25T10:08:10;92441.44;;;7.57;86.65
10466;BME280;5280;42.600;23.556;2024-03-25T10:10:36;92488.00;;;7.87;87.91
10466;BME280;5280;42.600;23.556;2024-03-25T10:13:03;92492.19;;;7.90;89.06
10466;BME280;5280;42.600;23.556;2024-03-25T10:15:29;92495.53;;;8.12;90.53
10466;BME280;5280;42.600;23.556;2024-03-25T10:17:55;92481.84;;;8.18;85.86
10466;BME280;5280;42.600;23.556;2024-03-25T10:20:21;92488.59;;;8.32;84.66
10466;BME280;5280;42.600;23.556;2024-03-25T10:22:47;92470.19;;;8.32;87.28
10466;BME280;5280;42.600;23.556;2024-03-25T10:25:21;92491.72;;;8.77;85.07
10466;BME280;5280;42.600;23.556;2024-03-25T10:27:55;92458.31;;;8.78;84.93
10466;BME280;5280;42.600;23.556;2024-03-25T10:30:21;92490.84;;;9.07;80.28
10466;BME280;5280;42.600;23.556;2024-03-25T10:32:57;92490.06;;;9.06;79.87
10466;BME280;5280;42.600;23.556;2024-03-25T10:35:26;92488.41;;;9.15;82.33
10466;BME280;5280;42.600;23.556;2024-03-25T10:37:54;92499.38;;;9.20;79.93
10466;BME280;5280;42.600;23.556;2024-03-25T10:40:23;92490.75;;;9.18;79.91
10466;BME280;5280;42.600;23.556;2024-03-25T10:42:52;92516.78;;;9.02;78.76
10466;BME280;5280;42.600;23.556;2024-03-25T10:45:20;92503.56;;;8.92;76.64
10466;BME280;5280;42.600;23.556;2024-03-25T10:47:46;92510.34;;;8.85;78.08
10466;BME280;5280;42.600;23.556;2024-03-25T10:50:16;92499.50;;;8.79;85.34
10466;BME280;5280;42.600;23.556;2024-03-25T10:52:44;92504.16;;;8.96;85.10
10466;BME280;5280;42.600;23.556;2024-03-25T10:55:10;92479.63;;;9.05;84.40
10466;BME280;5280;42.600;23.556;2024-03-25T10:57:38;92502.72;;;9.32;82.70
10466;BME280;5280;42.600;23.556;2024-03-25T11:00:06;92515.09;;;9.31;76.53
10466;BME280;5280;42.600;23.556;2024-03-25T11:02:32;92438.00;;;8.99;78.21
10466;BME280;5280;42.600;23.556;2024-03-25T11:04:59;92478.75;;;9.54;73.90
10466;BME280;5280;42.600;23.556;2024-03-25T11:07:31;92482.91;;;9.57;73.70
10466;BME280;5280;42.600;23.556;2024-03-25T11:10:03;92479.72;;;9.63;68.97
10466;BME280;5280;42.600;23.556;2024-03-25T11:12:35;92491.53;;;9.68;68.71
10466;BME280;5280;42.600;23.556;2024-03-25T11:15:04;92479.88;;;9.61;67.99
10466;BME280;5280;42.600;23.556;2024-03-25T11:17:30;92474.19;;;9.66;64.55
10466;BME280;5280;42.600;23.556;2024-03-25T11:20:09;92472.22;;;9.68;67.81
10466;BME280;5280;42.600;23.556;2024-03-25T11:22:36;92474.19;;;9.85;69.09
10466;BME280;5280;42.600;23.556;2024-03-25T11:25:06;92475.56;;;9.89;67.67
10466;BME280;5280;42.600;23.556;2024-03-25T11:27:35;92430.84;;;9.49;69.40
10466;BME280;5280;42.600;23.556;2024-03-25T11:30:04;92471.69;;;9.64;68.47
10466;BME280;5280;42.600;23.556;2024-03-25T11:32:30;92486.78;;;9.43;68.78
10466;BME280;5280;42.600;23.556;2024-03-25T11:34:56;92450.03;;;8.92;68.85
10466;BME280;5280;42.600;23.556;2024-03-25T11:37:22;92440.22;;;8.94;68.63
10466;BME280;5280;42.600;23.556;2024-03-25T11:39:48;92515.09;;;9.41;72.57
10466;BME280;5280;42.600;23.556;2024-03-25T11:42:14;92499.84;;;9.54;67.74
10466;BME280;5280;42.600;23.556;2024-03-25T11:44:40;92456.06;;;9.13;68.31
10466;BME280;5280;42.600;23.556;2024-03-25T11:47:10;92519.97;;;9.45;69.51
10466;BME280;5280;42.600;23.556;2024-03-25T11:49:39;92524.63;;;9.32;68.88
10466;BME280;5280;42.600;23.556;2024-03-25T11:52:06;92537.78;;;9.13;75.50
10466;BME280;5280;42.600;23.556;2024-03-25T11:54:32;92531.41;;;8.76;79.44
10466;BME280;5280;42.600;23.556;2024-03-25T11:56:58;92532.94;;;8.57;83.27
10466;BME280;5280;42.600;23.556;2024-03-25T11:59:24;92529.31;;;8.49;86.23
10466;BME280;5280;42.600;23.556;2024-03-25T12:01:50;92525.66;;;8.61;80.53
10466;BME280;5280;42.600;23.556;2024-03-25T12:04:18;92525.25;;;8.66;78.94
10466;BME280;5280;42.600;23.556;2024-03-25T12:06:45;92520.91;;;8.85;79.26
10466;BME280;5280;42.600;23.556;2024-03-25T12:09:11;92517.34;;;8.96;75.40
10466;BME280;5280;42.600;23.556;2024-03-25T12:11:55;92532.72;;;8.91;77.96
10466;BME280;5280;42.600;23.556;2024-03-25T12:14:21;92517.75;;;8.91;81.09
10466;BME280;5280;42.600;23.556;2024-03-25T12:16:47;92474.75;;;8.91;80.09
10466;BME280;5280;42.600;23.556;2024-03-25T12:19:14;92421.06;;;8.52;79.86
10466;BME280;5280;42.600;23.556;2024-03-25T12:21:41;92494.31;;;8.98;81.99
10466;BME280;5280;42.600;23.556;2024-03-25T12:24:07;92505.53;;;8.90;78.47
10466;BME280;5280;42.600;23.556;2024-03-25T12:26:34;92500.03;;;8.73;80.64
10466;BME280;5280;42.600;23.556;2024-03-25T12:29:00;92501.38;;;8.67;80.74
10466;BME280;5280;42.600;23.556;2024-03-25T12:31:26;92502.22;;;8.68;79.75
10466;BME280;5280;42.600;23.556;2024-03-25T12:33:52;92485.09;;;8.83;76.67
10466;BME280;5280;42.600;23.556;2024-03-25T12:36:20;92482.47;;;8.83;77.21
10466;BME280;5280;42.600;23.556;2024-03-25T12:38:55;92520.16;;;9.14;77.95
10466;BME280;5280;42.600;23.556;2024-03-25T12:41:22;92504.34;;;9.14;81.04
10466;BME280;5280;42.600;23.556;2024-03-25T12:43:49;92446.81;;;8.79;79.11
10466;BME280;5280;42.600;23.556;2024-03-25T12:46:16;92447.53;;;8.81;77.74
10466;BME280;5280;42.600;23.556;2024-03-25T12:48:42;92507.53;;;9.17;78.83
10466;BME280;5280;42.600;23.556;2024-03-25T12:51:12;92519.34;;;9.23;75.52
10466;BME280;5280;42.600;23.556;2024-03-25T12:53:38;92513.94;;;9.24;77.86
10466;BME280;5280;42.600;23.556;2024-03-25T12:56:06;92495.94;;;9.48;80.48
10466;BME280;5280;42.600;23.556;2024-03-25T12:58:33;92510.41;;;9.83;79.08
10466;BME280;5280;42.600;23.556;2024-03-25T13:00:59;92521.81;;;10.03;78.17
10466;BME280;5280;42.600;23.556;2024-03-25T13:03:25;92529.59;;;10.04;76.44